createdAt,value
2023-03-10T00:01:35.916Z,2.80
2023-03-10T00:04:08.358Z,2.87
2023-03-10T00:06:41.743Z,2.35
2023-03-10T00:09:14.339Z,2.47
2023-03-10T00:11:47.225Z,2.60
2023-03-10T00:14:20.418Z,2.87
2023-03-10T00:16:53.693Z,2.60
2023-03-10T00:19:26.842Z,2.55
2023-03-10T00:21:59.312Z,1.90
2023-03-10T00:24:32.124Z,2.30
2023-03-10T00:27:04.446Z,2.40
2023-03-10T00:29:37.494Z,2.58
2023-03-10T00:32:10.280Z,2.05
2023-03-10T00:34:42.679Z,2.00
2023-03-10T00:37:15.405Z,2.45
2023-03-10T00:39:52.944Z,2.20
2023-03-10T00:42:25.994Z,2.37
2023-03-10T00:44:58.661Z,2.45
2023-03-10T00:47:31.360Z,2.60
2023-03-10T00:50:04.976Z,2.72
2023-03-10T00:52:37.781Z,2.90
2023-03-10T00:55:11.482Z,2.85
2023-03-10T00:57:43.878Z,2.62
2023-03-10T01:00:18.342Z,2.60
2023-03-10T01:05:25.792Z,2.58
2023-03-10T01:07:58.209Z,2.50
2023-03-10T01:10:31.006Z,2.10
2023-03-10T01:13:04.655Z,2.35
2023-03-10T01:15:37.379Z,3.05
2023-03-10T01:18:09.731Z,3.00
2023-03-10T01:20:43.999Z,2.67
2023-03-10T01:23:41.251Z,2.40
2023-03-10T01:26:15.181Z,2.95
2023-03-10T01:28:50.598Z,2.62
2023-03-10T01:31:25.071Z,2.77
2023-03-10T01:33:58.995Z,2.50
2023-03-10T01:36:32.291Z,2.80
2023-03-10T01:39:05.626Z,2.87
2023-03-10T01:41:41.981Z,2.33
2023-03-10T01:44:18.258Z,2.10
2023-03-10T01:46:53.176Z,2.40
2023-03-10T01:49:40.852Z,2.17
2023-03-10T01:52:18.303Z,2.30
2023-03-10T01:55:13.130Z,3.20
2023-03-10T01:57:49.138Z,2.40
2023-03-10T02:00:26.017Z,2.40
2023-03-10T02:03:30.985Z,2.30
2023-03-10T02:06:12.887Z,2.60
2023-03-10T02:08:52.465Z,2.33
2023-03-10T02:11:25.653Z,2.62
2023-03-10T02:13:58.164Z,2.35
2023-03-10T02:16:30.770Z,2.17
2023-03-10T02:19:04.079Z,2.25
2023-03-10T02:21:48.185Z,2.12
2023-03-10T02:24:53.257Z,3.67
2023-03-10T02:27:30.671Z,2.70
2023-03-10T02:30:09.703Z,2.50
2023-03-10T02:32:46.823Z,2.72
2023-03-10T02:35:19.476Z,3.67
2023-03-10T02:38:02.864Z,2.67
2023-03-10T02:40:40.553Z,3.55
2023-03-10T02:43:34.523Z,2.77
2023-03-10T02:46:20.820Z,2.60
2023-03-10T02:48:53.830Z,3.62
2023-03-10T02:51:53.244Z,3.37
2023-03-10T02:54:26.253Z,2.33
2023-03-10T02:56:58.739Z,2.50
2023-03-10T02:59:31.552Z,2.85
2023-03-10T03:02:04.859Z,2.47
2023-03-10T03:04:37.428Z,3.10
2023-03-10T03:07:10.363Z,2.40
2023-03-10T03:09:43.974Z,4.22
2023-03-10T03:12:16.674Z,3.17
2023-03-10T03:14:49.992Z,2.67
2023-03-10T03:17:23.027Z,2.85
2023-03-10T03:19:55.437Z,2.10
2023-03-10T03:22:29.507Z,2.58
2023-03-10T03:25:02.223Z,2.45
2023-03-10T03:27:35.325Z,1.98
2023-03-10T03:30:14.330Z,2.20
2023-03-10T03:32:47.366Z,2.12
2023-03-10T03:35:32.256Z,2.60
2023-03-10T03:38:06.246Z,2.70
2023-03-10T03:40:39.980Z,2.25
2023-03-10T03:45:47.401Z,2.45
2023-03-10T03:48:22.333Z,2.00
2023-03-10T03:50:55.945Z,2.60
2023-03-10T03:53:30.139Z,2.47
2023-03-10T03:56:02.751Z,2.20
2023-03-10T03:58:38.273Z,3.67
2023-03-10T04:01:11.131Z,2.60
2023-03-10T04:03:45.489Z,2.12
2023-03-10T04:06:23.466Z,2.65
2023-03-10T04:08:56.770Z,2.50
2023-03-10T04:11:40.389Z,2.52
2023-03-10T04:14:16.810Z,2.35
2023-03-10T04:16:49.850Z,2.30
2023-03-10T04:19:23.132Z,2.72
2023-03-10T04:21:57.886Z,2.52
2023-03-10T04:24:30.604Z,3.22
2023-03-10T04:29:40.926Z,2.40
2023-03-10T04:32:14.239Z,2.60
2023-03-10T04:34:48.346Z,2.65
2023-03-10T04:37:22.075Z,3.00
2023-03-10T04:39:54.950Z,3.13
2023-03-10T04:42:28.234Z,2.62
2023-03-10T04:45:02.255Z,3.83
2023-03-10T04:47:35.347Z,3.40
2023-03-10T04:50:09.442Z,3.75
2023-03-10T04:52:43.237Z,3.10
2023-03-10T04:55:16.051Z,2.58
2023-03-10T04:57:48.696Z,2.98
2023-03-10T05:00:22.033Z,2.92
2023-03-10T05:02:55.400Z,3.37
2023-03-10T05:05:28.111Z,3.17
2023-03-10T05:08:00.733Z,2.42
2023-03-10T05:10:34.081Z,4.00
2023-03-10T05:13:06.399Z,2.17
2023-03-10T05:15:40.816Z,3.45
2023-03-10T05:18:15.472Z,2.60
2023-03-10T05:20:48.122Z,3.27
2023-03-10T05:23:20.692Z,2.95
2023-03-10T05:25:53.306Z,5.67
2023-03-10T05:28:26.841Z,3.40
2023-03-10T05:31:00.941Z,3.92
2023-03-10T05:33:34.554Z,2.90
2023-03-10T05:36:08.939Z,3.15
2023-03-10T05:38:42.314Z,3.45
2023-03-10T05:41:16.489Z,2.87
2023-03-10T05:43:50.968Z,2.75
2023-03-10T05:46:24.998Z,3.83
2023-03-10T05:49:00.848Z,2.90
2023-03-10T05:51:33.690Z,4.37
2023-03-10T05:54:07.490Z,3.72
2023-03-10T05:56:40.162Z,3.75
2023-03-10T05:59:14.053Z,3.72
2023-03-10T06:01:46.566Z,3.85
2023-03-10T06:04:19.571Z,3.30
2023-03-10T06:06:53.245Z,3.08
2023-03-10T06:09:25.828Z,3.22
2023-03-10T06:11:59.682Z,4.17
2023-03-10T06:14:33.341Z,3.75
2023-03-10T06:17:06.085Z,4.78
2023-03-10T06:19:39.075Z,3.67
2023-03-10T06:22:11.934Z,2.58
2023-03-10T06:24:45.595Z,3.37
2023-03-10T06:27:18.472Z,4.65
2023-03-10T06:29:50.887Z,3.85
2023-03-10T06:32:23.545Z,3.25
2023-03-10T06:34:55.883Z,3.33
2023-03-10T06:37:28.942Z,2.70
2023-03-10T06:40:01.482Z,2.17
2023-03-10T06:42:45.408Z,2.40
2023-03-10T06:45:18.750Z,2.83
2023-03-10T06:47:51.266Z,2.80
2023-03-10T06:50:24.898Z,2.98
2023-03-10T06:52:58.139Z,2.98
2023-03-10T06:55:30.721Z,2.50
2023-03-10T06:58:03.399Z,2.52
2023-03-10T07:00:36.909Z,5.23
2023-03-10T07:03:13.026Z,3.33
2023-03-10T07:05:45.414Z,2.60
2023-03-10T07:08:17.801Z,3.20
2023-03-10T07:10:51.943Z,3.58
2023-03-10T07:13:24.830Z,2.42
2023-03-10T07:15:58.168Z,3.30
2023-03-10T07:18:31.113Z,2.23
2023-03-10T07:21:03.530Z,2.40
2023-03-10T07:23:37.058Z,2.47
2023-03-10T07:26:09.490Z,3.77
2023-03-10T07:28:43.449Z,2.40
2023-03-10T07:31:16.115Z,2.65
2023-03-10T07:36:24.558Z,2.40
2023-03-10T07:39:10.177Z,2.50
2023-03-10T07:41:42.773Z,3.00
2023-03-10T07:44:15.546Z,2.67
2023-03-10T07:46:48.375Z,3.08
2023-03-10T07:49:22.375Z,3.17
2023-03-10T07:51:55.842Z,4.62
2023-03-10T07:54:28.265Z,3.37
2023-03-10T07:57:00.866Z,4.28
2023-03-10T07:59:33.362Z,3.52
2023-03-10T08:02:06.512Z,3.85
2023-03-10T08:04:39.220Z,3.58
2023-03-10T08:07:12.141Z,2.95
2023-03-10T08:09:46.340Z,2.42
2023-03-10T08:12:19.760Z,2.65
2023-03-10T08:14:52.904Z,3.10
2023-03-10T08:17:27.775Z,3.22
2023-03-10T08:20:00.987Z,3.58
2023-03-10T08:22:33.653Z,2.97
2023-03-10T08:25:06.928Z,3.30
2023-03-10T08:27:41.808Z,3.45
2023-03-10T08:30:15.417Z,3.70
2023-03-10T08:32:48.517Z,20.43
2023-03-10T08:35:21.216Z,28.85
2023-03-10T08:37:55.454Z,14.38
2023-03-10T08:40:28.403Z,7.17
2023-03-10T08:43:01.845Z,5.93
2023-03-10T08:45:34.386Z,4.42
2023-03-10T08:48:07.013Z,9.28
2023-03-10T08:50:40.246Z,5.03
2023-03-10T08:53:12.912Z,5.05
2023-03-10T08:55:45.354Z,4.85
2023-03-10T08:58:18.527Z,6.40
2023-03-10T09:00:50.816Z,6.08
2023-03-10T09:03:23.819Z,5.72
2023-03-10T09:05:56.228Z,7.20
2023-03-10T09:08:31.170Z,6.80
2023-03-10T09:11:04.273Z,6.33
2023-03-10T09:13:37.029Z,8.03
2023-03-10T09:16:11.417Z,21.12
2023-03-10T09:18:44.483Z,14.75
2023-03-10T09:21:18.410Z,9.95
2023-03-10T09:23:53.060Z,7.30
2023-03-10T09:26:25.737Z,8.20
2023-03-10T09:28:58.718Z,7.70
2023-03-10T09:31:34.432Z,7.08
2023-03-10T09:34:08.469Z,6.50
2023-03-10T09:36:41.498Z,6.83
2023-03-10T09:39:13.902Z,6.20
2023-03-10T09:42:14.961Z,7.28
2023-03-10T09:45:17.123Z,11.50
2023-03-10T09:48:25.952Z,11.93
2023-03-10T09:50:57.200Z,11.63
2023-03-10T09:54:00.300Z,13.10
2023-03-10T09:56:34.988Z,12.78
2023-03-10T09:59:12.078Z,12.40
2023-03-10T10:02:06.531Z,13.75
2023-03-10T10:04:40.778Z,11.73
2023-03-10T10:07:21.072Z,9.90
2023-03-10T10:10:19.343Z,9.60
2023-03-10T10:12:52.666Z,10.25
2023-03-10T10:15:27.625Z,10.18
2023-03-10T10:18:34.076Z,10.55
2023-03-10T10:21:11.603Z,11.48
2023-03-10T10:23:51.805Z,10.08
2023-03-10T10:26:27.947Z,9.60
2023-03-10T10:29:14.307Z,12.47
2023-03-10T10:32:06.870Z,10.63
2023-03-10T10:34:42.932Z,10.35
2023-03-10T10:37:38.803Z,10.72
2023-03-10T10:40:25.309Z,9.98
2023-03-10T10:43:00.473Z,9.70
2023-03-10T10:45:40.403Z,10.38
2023-03-10T10:48:40.543Z,10.03
2023-03-10T10:51:29.319Z,10.45
2023-03-10T10:54:06.470Z,10.82
2023-03-10T10:56:38.821Z,9.70
2023-03-10T10:59:23.761Z,10.72
2023-03-10T11:02:02.217Z,9.90
2023-03-10T11:04:46.609Z,14.63
2023-03-10T11:07:23.480Z,9.20
2023-03-10T11:09:58.618Z,9.45
2023-03-10T11:15:28.334Z,9.83
2023-03-10T11:18:06.230Z,11.33
2023-03-10T11:20:56.480Z,10.72
2023-03-10T11:23:51.806Z,9.40
2023-03-10T11:26:29.281Z,10.28
2023-03-10T11:29:25.652Z,11.12
2023-03-10T11:32:19.494Z,12.15
2023-03-10T11:34:58.374Z,10.82
2023-03-10T11:37:47.673Z,12.75
2023-03-10T11:40:29.050Z,11.53
2023-03-10T11:43:35.787Z,10.38
2023-03-10T11:46:26.064Z,9.68
2023-03-10T11:49:07.904Z,9.25
2023-03-10T11:51:51.792Z,11.25
2023-03-10T11:54:49.105Z,9.35
2023-03-10T11:57:23.265Z,10.20
2023-03-10T12:03:04.475Z,10.98
2023-03-10T12:05:53.321Z,10.53
2023-03-10T12:08:26.850Z,11.10
2023-03-10T12:11:03.329Z,10.98
2023-03-10T12:13:44.030Z,13.32
2023-03-10T12:16:24.691Z,14.38
2023-03-10T12:18:57.421Z,11.18
2023-03-10T12:21:31.889Z,10.93
2023-03-10T12:24:05.478Z,13.15
2023-03-10T12:26:45.758Z,11.33
2023-03-10T12:29:29.671Z,12.73
2023-03-10T12:32:02.322Z,10.78
2023-03-10T12:34:35.422Z,11.80
2023-03-10T12:37:12.300Z,10.88
2023-03-10T12:39:45.169Z,11.15
2023-03-10T12:42:36.000Z,11.33
2023-03-10T12:45:29.341Z,10.72
2023-03-10T12:48:22.674Z,11.83
2023-03-10T12:51:01.357Z,11.40
2023-03-10T12:53:38.991Z,13.08
2023-03-10T12:56:19.219Z,13.18
2023-03-10T12:59:02.111Z,12.20
2023-03-10T13:01:55.096Z,10.38
2023-03-10T13:04:22.298Z,12.00
2023-03-10T13:06:59.695Z,12.45
2023-03-10T13:09:39.254Z,11.80
2023-03-10T13:12:31.237Z,12.07
2023-03-10T13:15:06.437Z,15.65
2023-03-10T13:17:38.847Z,10.98
2023-03-10T13:20:19.469Z,10.45
2023-03-10T13:23:18.399Z,9.63
2023-03-10T13:25:58.018Z,7.10
2023-03-10T13:28:34.687Z,6.20
2023-03-10T13:31:35.859Z,6.87
2023-03-10T13:34:21.419Z,7.33
2023-03-10T13:36:54.799Z,6.40
2023-03-10T13:39:28.263Z,6.17
2023-03-10T13:42:02.263Z,9.20
2023-03-10T13:44:42.471Z,7.90
2023-03-10T13:47:24.982Z,8.95
2023-03-10T13:50:00.957Z,6.12
2023-03-10T13:52:34.456Z,8.00
2023-03-10T13:55:16.185Z,7.67
2023-03-10T13:57:49.797Z,6.67
2023-03-10T14:00:25.210Z,6.75
2023-03-10T14:02:57.757Z,8.43
2023-03-10T14:06:00.412Z,7.05
2023-03-10T14:08:34.050Z,7.55
2023-03-10T14:11:41.878Z,7.62
2023-03-10T14:14:15.493Z,7.83
2023-03-10T14:16:57.051Z,7.47
2023-03-10T14:19:48.578Z,8.88
2023-03-10T14:22:36.310Z,7.95
2023-03-10T14:25:13.014Z,7.08
2023-03-10T14:27:49.684Z,8.00
2023-03-10T14:30:29.367Z,8.05
2023-03-10T14:33:03.029Z,8.40
2023-03-10T14:35:35.440Z,8.40
2023-03-10T14:38:08.434Z,9.13
2023-03-10T14:40:54.587Z,8.03
2023-03-10T14:43:28.345Z,10.78
2023-03-10T14:46:06.280Z,9.25
2023-03-10T14:48:40.934Z,8.25
2023-03-10T14:51:29.029Z,9.23
2023-03-10T14:53:52.608Z,9.83
2023-03-10T14:56:25.695Z,10.58
2023-03-10T14:58:59.940Z,8.98
2023-03-10T15:01:32.226Z,12.15
2023-03-10T15:04:05.305Z,10.53
2023-03-10T15:06:37.778Z,10.50
2023-03-10T15:09:10.956Z,12.30
2023-03-10T15:11:44.347Z,13.30
2023-03-10T15:14:20.543Z,12.28
2023-03-10T15:16:53.011Z,12.88
2023-03-10T15:19:28.227Z,10.78
2023-03-10T15:22:00.738Z,11.03
2023-03-10T15:24:33.725Z,11.70
2023-03-10T15:27:06.183Z,12.93
2023-03-10T15:29:39.371Z,14.13
2023-03-10T15:32:12.830Z,10.05
2023-03-10T15:34:45.424Z,10.82
2023-03-10T15:37:17.928Z,11.35
2023-03-10T15:39:50.580Z,12.50
2023-03-10T15:42:25.353Z,10.85
2023-03-10T15:44:58.072Z,14.87
2023-03-10T15:47:31.279Z,14.70
2023-03-10T15:50:03.824Z,14.70
2023-03-10T15:52:36.445Z,18.10
2023-03-10T15:55:09.670Z,16.10
2023-03-10T15:57:43.193Z,14.98
2023-03-10T16:00:20.002Z,14.05
2023-03-10T16:02:53.069Z,13.03
2023-03-10T16:05:26.059Z,13.30
2023-03-10T16:08:00.149Z,12.13
2023-03-10T16:10:34.607Z,10.88
2023-03-10T16:13:07.240Z,13.43
2023-03-10T16:15:40.316Z,10.45
2023-03-10T16:18:12.959Z,9.80
2023-03-10T16:20:45.760Z,8.55
2023-03-10T16:23:19.178Z,10.80
2023-03-10T16:26:13.046Z,9.78
2023-03-10T16:28:55.733Z,9.33
2023-03-10T16:31:28.798Z,10.60
2023-03-10T16:34:03.997Z,10.82
2023-03-10T16:36:37.954Z,8.80
2023-03-10T16:39:12.191Z,9.43
2023-03-10T16:41:45.572Z,11.12
2023-03-10T16:44:18.206Z,9.15
2023-03-10T16:46:50.703Z,9.53
2023-03-10T16:49:24.445Z,9.60
2023-03-10T16:51:56.710Z,9.20
2023-03-10T16:54:29.114Z,11.10
2023-03-10T16:57:03.808Z,11.88
2023-03-10T16:59:37.054Z,12.58
2023-03-10T17:02:15.870Z,10.60
2023-03-10T17:04:49.385Z,11.90
2023-03-10T17:07:21.727Z,11.75
2023-03-10T17:09:55.201Z,11.22
2023-03-10T17:12:27.758Z,14.60
2023-03-10T17:15:00.791Z,12.90
2023-03-10T17:17:34.171Z,12.90
2023-03-10T17:20:08.788Z,13.70
2023-03-10T17:22:41.359Z,14.10
2023-03-10T17:25:15.104Z,15.15
2023-03-10T17:27:48.276Z,14.05
2023-03-10T17:30:20.821Z,14.98
2023-03-10T17:32:53.981Z,14.25
2023-03-10T17:35:26.485Z,18.82
2023-03-10T17:37:59.852Z,14.18
2023-03-10T17:40:33.977Z,14.87
2023-03-10T17:43:17.648Z,15.35
2023-03-10T17:45:41.523Z,13.68
2023-03-10T17:48:14.663Z,15.45
2023-03-10T17:50:51.542Z,14.87
2023-03-10T17:53:30.134Z,16.97
2023-03-10T17:56:09.380Z,17.77
2023-03-10T17:58:43.307Z,17.62
2023-03-10T18:01:22.324Z,17.52
2023-03-10T18:03:56.302Z,19.37
2023-03-10T18:06:31.696Z,17.82
2023-03-10T18:09:07.756Z,19.25
2023-03-10T18:11:40.280Z,20.00
2023-03-10T18:14:12.955Z,21.55
2023-03-10T18:16:46.039Z,20.12
2023-03-10T18:19:20.835Z,19.45
2023-03-10T18:21:53.761Z,23.02
2023-03-10T18:24:26.770Z,22.22
2023-03-10T18:27:01.174Z,18.40
2023-03-10T18:29:33.804Z,19.00
2023-03-10T18:32:08.185Z,23.12
2023-03-10T18:34:41.219Z,19.48
2023-03-10T18:37:19.859Z,21.25
2023-03-10T18:39:53.092Z,20.80
2023-03-10T18:42:28.301Z,19.12
2023-03-10T18:45:01.764Z,22.25
2023-03-10T18:47:36.646Z,22.20
2023-03-10T18:50:11.731Z,19.75
2023-03-10T18:52:44.543Z,18.75
2023-03-10T18:55:22.709Z,21.07
2023-03-10T18:57:58.205Z,23.23
2023-03-10T19:00:31.614Z,22.20
2023-03-10T19:03:04.747Z,23.57
2023-03-10T19:05:39.164Z,21.27
2023-03-10T19:08:12.346Z,21.42
2023-03-10T19:10:45.517Z,21.42
2023-03-10T19:13:18.269Z,22.55
2023-03-10T19:15:50.804Z,24.70
2023-03-10T19:18:24.847Z,21.35
2023-03-10T19:21:02.140Z,23.45
2023-03-10T19:23:35.157Z,25.48
2023-03-10T19:26:09.224Z,26.15
2023-03-10T19:28:42.141Z,25.80
2023-03-10T19:31:15.899Z,26.55
2023-03-10T19:33:48.931Z,22.45
2023-03-10T19:36:21.544Z,23.87
2023-03-10T19:38:54.837Z,22.00
2023-03-10T19:41:28.261Z,26.90
2023-03-10T19:44:04.192Z,23.87
2023-03-10T19:46:37.836Z,25.95
2023-03-10T19:49:10.427Z,26.05
2023-03-10T19:51:43.245Z,25.30
2023-03-10T19:54:16.704Z,31.02
2023-03-10T19:56:50.881Z,25.12
2023-03-10T19:59:23.549Z,26.97
2023-03-10T20:01:56.179Z,24.80
2023-03-10T20:04:28.988Z,24.90
2023-03-10T20:07:01.744Z,26.60
2023-03-10T20:09:35.915Z,25.12
2023-03-10T20:12:08.830Z,25.95
2023-03-10T20:14:41.453Z,28.52
2023-03-10T20:17:14.230Z,27.45
2023-03-10T20:19:46.788Z,28.12
2023-03-10T20:22:19.753Z,26.87
2023-03-10T20:24:52.515Z,26.87
2023-03-10T20:27:25.547Z,28.52
2023-03-10T20:29:59.392Z,29.45
2023-03-10T20:32:32.139Z,23.27
2023-03-10T20:35:05.193Z,28.35
2023-03-10T20:37:38.790Z,27.25
2023-03-10T20:40:13.539Z,28.27
2023-03-10T20:42:46.362Z,26.23
2023-03-10T20:45:19.312Z,25.62
2023-03-10T20:47:55.603Z,25.02
2023-03-10T20:50:28.255Z,27.70
2023-03-10T20:53:02.199Z,22.62
2023-03-10T20:55:35.748Z,23.47
2023-03-10T20:58:08.444Z,26.48
2023-03-10T21:00:41.103Z,26.15
2023-03-10T21:03:13.658Z,24.25
2023-03-10T21:05:46.492Z,24.65
2023-03-10T21:08:19.521Z,26.45
2023-03-10T21:10:52.644Z,24.35
2023-03-10T21:13:25.804Z,25.60
2023-03-10T21:15:58.336Z,25.97
2023-03-10T21:18:31.047Z,26.90
2023-03-10T21:21:10.110Z,29.30
2023-03-10T21:23:46.218Z,26.05
2023-03-10T21:26:20.680Z,28.80
2023-03-10T21:28:53.382Z,31.15
2023-03-10T21:31:25.814Z,27.37
2023-03-10T21:33:58.340Z,26.90
2023-03-10T21:36:30.719Z,31.75
2023-03-10T21:39:03.367Z,25.90
2023-03-10T21:41:35.996Z,29.57
2023-03-10T21:44:08.838Z,29.42
2023-03-10T21:46:41.814Z,31.17
2023-03-10T21:49:15.833Z,33.38
2023-03-10T21:51:48.646Z,29.72
2023-03-10T21:54:21.044Z,32.35
2023-03-10T21:56:54.750Z,32.03
2023-03-10T21:59:27.373Z,34.38
2023-03-10T22:02:00.798Z,37.33
2023-03-10T22:04:33.418Z,36.00
2023-03-10T22:07:06.363Z,37.50
2023-03-10T22:09:41.270Z,32.05
2023-03-10T22:14:47.616Z,37.53
2023-03-10T22:17:20.761Z,32.70
2023-03-10T22:19:55.036Z,31.80
2023-03-10T22:22:27.749Z,35.43
2023-03-10T22:25:01.877Z,35.83
2023-03-10T22:27:34.592Z,36.05
2023-03-10T22:30:08.685Z,37.83
2023-03-10T22:32:42.051Z,35.48
2023-03-10T22:35:14.828Z,38.83
2023-03-10T22:37:48.420Z,38.45
2023-03-10T22:40:24.159Z,36.23
2023-03-10T22:42:57.874Z,39.48
2023-03-10T22:45:33.061Z,37.90
2023-03-10T22:48:07.135Z,38.42
2023-03-10T22:50:43.639Z,42.65
2023-03-10T22:53:21.079Z,36.80
2023-03-10T22:55:53.903Z,38.53
2023-03-10T22:58:26.246Z,40.38
2023-03-10T23:00:59.118Z,37.08
2023-03-10T23:03:31.753Z,36.75
2023-03-10T23:06:08.241Z,39.85
2023-03-10T23:08:43.957Z,38.85
2023-03-10T23:11:16.862Z,40.75
2023-03-10T23:13:50.481Z,42.80
2023-03-10T23:16:23.882Z,37.50
2023-03-10T23:18:56.958Z,38.38
2023-03-10T23:21:29.646Z,35.25
2023-03-10T23:24:02.300Z,34.25
2023-03-10T23:26:36.380Z,36.80
2023-03-10T23:29:10.020Z,37.53
2023-03-10T23:31:43.221Z,36.45
2023-03-10T23:34:17.498Z,38.70
2023-03-10T23:36:50.073Z,35.38
2023-03-10T23:39:22.491Z,37.13
2023-03-10T23:41:54.964Z,40.52
2023-03-10T23:44:27.681Z,34.27
2023-03-10T23:47:00.061Z,30.85
2023-03-10T23:49:33.456Z,36.55
2023-03-10T23:52:06.061Z,38.08
2023-03-10T23:54:38.838Z,36.98
2023-03-10T23:57:11.911Z,35.48
2023-03-10T23:59:44.381Z,36.17
